»·PEaware :: UAL1399 KABQ-KDEN

UAL1399 :: KABQ-KDEN

FLIGHT INFORMATION

Flight Status: Arrived
Operator:
United Airlines
More flights by this operator :: More flights under this callsign
Pilot: David C. (16084)
Aircraft: Unknown
(A359)
More flights by this aircraft type
Origin: KABQ Albuquerque Intl Sunport
United States
Destination: KDEN Denver Intl
United States
More flights between these airports :: More routes between these airports
Route: JEMEZ3 JEMEZ GNDLA TBARR2
File this flight plan on PilotEdge
Remarks:
Altitude:
(Current/Filed)
33,000ft
Speed:
(Current/Filed)
472kts
Departed: 08-Mar-21 01:37 PM
Arrived: 08-Mar-21 02:29 PM
Distance/Time
Traveled:
303nm/0:52
Distance/Time
To Go:
Arrived

Flight Plot

Page will automatically refresh every two minutes.

Flight plan parsing failed; only flown route is shown


Map Options




Map Legend


Flown Route
Filed Route
Departure Airport
Arrival Airport
Navaid (VOR, NDB)
Fix

Horizontal Profiles

Position Reports

Time Latitude Longitude Heading Altitude Ground
Speed
08-Mar-21 12:54 35.046774 -106.615901 5 5326ft 0kts
08-Mar-21 12:55 35.046774 -106.615901 4 5326ft 0kts
08-Mar-21 12:56 35.046774 -106.615901 5 5326ft 0kts
08-Mar-21 12:57 35.046774 -106.615901 5 5326ft 0kts
08-Mar-21 12:58 35.046774 -106.615901 5 5326ft 0kts
08-Mar-21 12:59 35.046774 -106.615901 5 5326ft 0kts
08-Mar-21 13:00 35.046774 -106.615901 5 5326ft 0kts
08-Mar-21 13:01 35.046774 -106.615901 5 5326ft 0kts
08-Mar-21 13:02 35.046774 -106.615901 5 5326ft 0kts
08-Mar-21 13:03 35.046774 -106.615901 5 5326ft 0kts
08-Mar-21 13:04 35.046774 -106.615901 5 5326ft 0kts
08-Mar-21 13:05 35.046774 -106.615901 5 5326ft 0kts
08-Mar-21 13:06 35.046774 -106.615901 5 5326ft 0kts
08-Mar-21 13:07 35.046774 -106.615901 5 5326ft 0kts
08-Mar-21 13:08 35.046774 -106.615901 5 5326ft 0kts
08-Mar-21 13:09 35.046774 -106.615901 5 5326ft 0kts
08-Mar-21 13:10 35.046774 -106.615901 5 5326ft 0kts
08-Mar-21 13:11 35.046774 -106.615901 5 5326ft 0kts
08-Mar-21 13:12 35.046774 -106.615901 5 5326ft 0kts
08-Mar-21 13:13 35.046774 -106.615901 5 5326ft 0kts
08-Mar-21 13:14 35.046774 -106.615901 5 5326ft 0kts
08-Mar-21 13:15 35.046774 -106.615901 5 5326ft 0kts
08-Mar-21 13:16 35.046774 -106.615901 5 5326ft 0kts
08-Mar-21 13:17 35.046774 -106.615901 5 5326ft 0kts
08-Mar-21 13:18 35.046774 -106.615901 5 5326ft 0kts
08-Mar-21 13:19 35.046516 -106.615909 354 5326ft 2kts
08-Mar-21 13:20 35.046056 -106.615789 342 5326ft 0kts
08-Mar-21 13:21 35.046056 -106.615789 342 5326ft 0kts
08-Mar-21 13:22 35.046056 -106.615789 342 5326ft 0kts
08-Mar-21 13:23 35.046056 -106.615789 342 5326ft 0kts
08-Mar-21 13:24 35.046056 -106.615789 342 5326ft 0kts
08-Mar-21 13:25 35.046056 -106.615789 342 5326ft 0kts
08-Mar-21 13:26 35.046056 -106.615789 342 5326ft 0kts
08-Mar-21 13:27 35.046072 -106.615795 342 5326ft 1kts
08-Mar-21 13:28 35.046071 -106.616470 230 5326ft 0kts
08-Mar-21 13:29 35.046071 -106.616470 230 5326ft 0kts
08-Mar-21 13:30 35.045983 -106.616547 201 5326ft 4kts
08-Mar-21 13:31 35.042819 -106.613758 182 5326ft 29kts
08-Mar-21 13:32 35.035628 -106.616600 227 5326ft 25kts
08-Mar-21 13:33 35.030590 -106.622700 224 5326ft 26kts
08-Mar-21 13:34 35.025346 -106.629011 224 5326ft 27kts
08-Mar-21 13:35 35.023267 -106.631222 179 5326ft 0kts
08-Mar-21 13:36 35.023378 -106.629257 45 5326ft 44kts
08-Mar-21 13:37 35.054074 -106.593525 42 6261ft 208kts
08-Mar-21 13:38 35.109502 -106.568985 321 8571ft 262kts
08-Mar-21 13:39 35.160429 -106.641081 316 11874ft 298kts
08-Mar-21 13:40 35.224954 -106.705628 317 15587ft 309kts
08-Mar-21 13:41 35.301421 -106.767203 323 17870ft 361kts
08-Mar-21 13:42 35.394742 -106.838172 325 19289ft 430kts
08-Mar-21 13:43 35.515442 -106.876779 347 21938ft 470kts
08-Mar-21 13:44 35.647989 -106.896189 347 24456ft 491kts
08-Mar-21 13:45 35.785325 -106.917261 346 26756ft 510kts
08-Mar-21 13:46 35.928546 -106.934645 353 29232ft 525kts
08-Mar-21 13:47 36.073716 -106.915354 2 31988ft 529kts
08-Mar-21 13:49 36.218470 -106.885760 2 33239ft 539kts
08-Mar-21 13:50 36.366353 -106.856156 2 33253ft 540kts
08-Mar-21 13:51 36.514442 -106.826383 2 33264ft 540kts
08-Mar-21 13:52 36.662423 -106.796446 2 33267ft 540kts
08-Mar-21 13:53 36.810110 -106.763904 5 33267ft 543kts
08-Mar-21 13:54 36.959601 -106.722046 6 33267ft 562kts
08-Mar-21 13:55 37.111820 -106.679155 6 33265ft 563kts
08-Mar-21 13:56 37.264356 -106.636159 6 33285ft 562kts
08-Mar-21 13:57 37.416209 -106.593122 6 33316ft 561kts
08-Mar-21 13:58 37.567280 -106.550065 6 33320ft 561kts
08-Mar-21 13:59 37.719463 -106.506566 6 33310ft 561kts
08-Mar-21 14:00 37.871620 -106.463330 6 33254ft 562kts
08-Mar-21 14:01 38.023877 -106.419619 6 33103ft 562kts
08-Mar-21 14:02 38.176284 -106.375656 6 33071ft 563kts
08-Mar-21 14:03 38.326394 -106.331916 7 33106ft 564kts
08-Mar-21 14:04 38.475021 -106.288186 7 33265ft 546kts
08-Mar-21 14:05 38.621230 -106.234097 22 33212ft 553kts
08-Mar-21 14:06 38.737772 -106.110842 49 30846ft 552kts
08-Mar-21 14:07 38.834247 -105.958336 49 27561ft 555kts
08-Mar-21 14:08 38.931172 -105.808897 49 24848ft 530kts
08-Mar-21 14:09 39.022273 -105.667223 50 22829ft 501kts
08-Mar-21 14:10 39.108660 -105.532150 49 20892ft 476kts
08-Mar-21 14:11 39.187862 -105.407920 50 20142ft 427kts
08-Mar-21 14:11 39.247119 -105.313307 51 19716ft 387kts
08-Mar-21 14:13 39.332571 -105.207779 33 18662ft 357kts
08-Mar-21 14:14 39.412630 -105.134118 34 17325ft 350kts
08-Mar-21 14:15 39.490493 -105.061900 33 16081ft 341kts
08-Mar-21 14:16 39.566703 -104.992035 33 14897ft 332kts
08-Mar-21 14:16 39.628899 -104.934758 33 13941ft 325kts
08-Mar-21 14:17 39.701536 -104.867665 33 13003ft 310kts
08-Mar-21 14:18 39.774615 -104.840285 355 12535ft 270kts
08-Mar-21 14:20 39.856091 -104.840171 357 11678ft 256kts
08-Mar-21 14:20 39.914130 -104.839504 357 11040ft 246kts
08-Mar-21 14:21 39.980474 -104.838705 357 9982ft 235kts
08-Mar-21 14:22 40.027175 -104.789847 78 8693ft 232kts
08-Mar-21 14:24 40.008385 -104.705668 144 7501ft 193kts
08-Mar-21 14:24 39.970410 -104.694643 183 6789ft 163kts
08-Mar-21 14:25 39.925618 -104.695708 181 5906ft 160kts
08-Mar-21 14:26 39.883438 -104.696206 180 5342ft 106kts
08-Mar-21 14:27 39.862586 -104.696582 178 5335ft 43kts
08-Mar-21 14:28 39.860382 -104.694384 91 5335ft 4kts
08-Mar-21 14:29 39.860321 -104.685423 89 5378ft 17kts
08-Mar-21 14:30 39.860671 -104.680530 86 5383ft 22kts
08-Mar-21 14:31 39.859583 -104.674919 175 5384ft 9kts
08-Mar-21 14:32 39.859510 -104.674912 175 5384ft 0kts
08-Mar-21 14:33 39.859510 -104.674912 175 5384ft 0kts

Navigation Log

Ident Type
Flight plan parsing failed, navigation log unavailable